createdAt,value
2019-02-02T00:01:37.330Z,2.40
2019-02-02T00:04:04.641Z,2.40
2019-02-02T00:06:31.621Z,2.40
2019-02-02T00:08:58.518Z,2.40
2019-02-02T00:11:25.550Z,2.30
2019-02-02T00:13:52.446Z,2.20
2019-02-02T00:16:19.432Z,2.30
2019-02-02T00:18:46.443Z,2.20
2019-02-02T00:21:13.433Z,2.20
2019-02-02T00:23:40.311Z,2.20
2019-02-02T00:26:07.406Z,2.20
2019-02-02T00:28:34.219Z,2.20
2019-02-02T00:31:01.213Z,2.20
2019-02-02T00:33:28.102Z,2.20
2019-02-02T00:35:54.977Z,2.20
2019-02-02T00:38:21.864Z,2.20
2019-02-02T00:40:51.592Z,2.20
2019-02-02T00:43:18.570Z,2.20
2019-02-02T00:45:45.354Z,2.10
2019-02-02T00:48:12.337Z,2.10
2019-02-02T00:50:39.329Z,2.10
2019-02-02T00:53:06.317Z,2.20
2019-02-02T00:55:33.180Z,2.20
2019-02-02T00:58:00.181Z,2.10
2019-02-02T01:00:27.174Z,2.00
2019-02-02T01:02:54.597Z,2.00
2019-02-02T01:05:22.205Z,2.00
2019-02-02T01:07:49.445Z,1.90
2019-02-02T01:10:19.801Z,1.90
2019-02-02T01:12:46.918Z,1.90
2019-02-02T01:15:15.548Z,1.80
2019-02-02T01:17:42.445Z,1.80
2019-02-02T01:20:09.745Z,1.80
2019-02-02T01:22:36.734Z,1.80
2019-02-02T01:25:04.715Z,1.80
2019-02-02T01:27:31.606Z,1.80
2019-02-02T01:29:58.490Z,1.80
2019-02-02T01:32:25.413Z,1.80
2019-02-02T01:34:52.205Z,1.80
2019-02-02T01:37:19.100Z,1.80
2019-02-02T01:39:46.033Z,1.80
2019-02-02T01:42:12.957Z,1.80
2019-02-02T01:44:39.865Z,1.90
2019-02-02T01:47:06.772Z,1.90
2019-02-02T01:49:33.765Z,1.90
2019-02-02T01:52:00.652Z,1.90
2019-02-02T01:54:27.428Z,1.80
2019-02-02T01:56:54.444Z,1.90
2019-02-02T01:59:21.229Z,1.90
2019-02-02T02:01:48.105Z,1.90
2019-02-02T02:04:14.995Z,1.90
2019-02-02T02:06:42.003Z,1.90
2019-02-02T02:09:09.062Z,2.00
2019-02-02T02:11:36.061Z,2.10
2019-02-02T02:14:03.264Z,2.10
2019-02-02T02:16:30.362Z,2.10
2019-02-02T02:18:57.146Z,2.10
2019-02-02T02:21:24.145Z,2.10
2019-02-02T02:23:51.115Z,2.10
2019-02-02T02:26:17.996Z,2.10
2019-02-02T02:28:44.798Z,2.00
2019-02-02T02:31:11.691Z,2.00
2019-02-02T02:33:38.581Z,1.90
2019-02-02T02:36:05.578Z,1.90
2019-02-02T02:38:32.479Z,1.90
2019-02-02T02:40:59.531Z,1.80
2019-02-02T02:43:26.564Z,1.70
2019-02-02T02:45:53.336Z,1.70
2019-02-02T02:48:20.242Z,1.70
2019-02-02T02:50:47.123Z,1.60
2019-02-02T02:53:14.029Z,1.60
2019-02-02T02:55:41.009Z,1.50
2019-02-02T02:58:07.901Z,1.50
2019-02-02T03:00:34.677Z,1.50
2019-02-02T03:03:01.549Z,1.50
2019-02-02T03:05:28.546Z,1.50
2019-02-02T03:07:55.325Z,1.50
2019-02-02T03:10:22.957Z,1.40
2019-02-02T03:12:49.965Z,1.40
2019-02-02T03:15:17.393Z,1.40
2019-02-02T03:17:44.518Z,1.40
2019-02-02T03:20:12.059Z,1.30
2019-02-02T03:22:39.044Z,1.30
2019-02-02T03:25:08.738Z,1.20
2019-02-02T03:27:35.633Z,1.20
2019-02-02T03:30:03.616Z,1.20
2019-02-02T03:32:30.402Z,1.30
2019-02-02T03:34:57.389Z,1.30
2019-02-02T03:37:24.202Z,1.30
2019-02-02T03:39:51.186Z,1.40
2019-02-02T03:42:17.986Z,1.40
2019-02-02T03:44:44.858Z,1.50
2019-02-02T03:47:11.894Z,1.50
2019-02-02T03:49:38.686Z,1.50
2019-02-02T03:52:05.681Z,1.50
2019-02-02T03:54:32.454Z,1.50
2019-02-02T03:56:59.338Z,1.50
2019-02-02T03:59:26.214Z,1.40
2019-02-02T04:01:53.123Z,1.40
2019-02-02T04:04:19.985Z,1.40
2019-02-02T04:06:46.987Z,1.40
2019-02-02T04:09:13.861Z,1.40
2019-02-02T04:11:43.393Z,1.40
2019-02-02T04:14:09.569Z,1.30
2019-02-02T04:16:36.372Z,1.30
2019-02-02T04:19:03.472Z,1.30
2019-02-02T04:21:30.357Z,1.30
2019-02-02T04:23:57.250Z,1.30
2019-02-02T04:26:24.128Z,1.30
2019-02-02T04:28:51.137Z,1.30
2019-02-02T04:31:17.908Z,1.20
2019-02-02T04:33:44.717Z,1.20
2019-02-02T04:36:11.602Z,1.10
2019-02-02T04:38:38.424Z,1.10
2019-02-02T04:41:05.209Z,1.10
2019-02-02T04:43:32.209Z,1.00
2019-02-02T04:45:59.221Z,1.10
2019-02-02T04:48:26.024Z,1.00
2019-02-02T04:50:52.925Z,0.90
2019-02-02T04:53:19.746Z,0.90
2019-02-02T04:55:46.629Z,0.90
2019-02-02T04:58:13.412Z,0.90
2019-02-02T05:00:40.289Z,0.90
2019-02-02T05:03:07.173Z,0.80
2019-02-02T05:05:34.047Z,0.80
2019-02-02T05:08:00.836Z,0.70
2019-02-02T05:10:27.718Z,0.70
2019-02-02T05:12:54.518Z,0.70
2019-02-02T05:15:21.472Z,0.60
2019-02-02T05:17:48.281Z,0.70
2019-02-02T05:20:15.429Z,0.70
2019-02-02T05:22:42.412Z,0.60
2019-02-02T05:25:09.538Z,0.60
2019-02-02T05:27:36.538Z,0.60
2019-02-02T05:30:06.550Z,0.60
2019-02-02T05:32:33.530Z,0.50
2019-02-02T05:35:00.498Z,0.50
2019-02-02T05:37:27.614Z,0.50
2019-02-02T05:39:54.397Z,0.50
2019-02-02T05:42:21.293Z,0.50
2019-02-02T05:44:48.185Z,0.50
2019-02-02T05:47:15.081Z,0.40
2019-02-02T05:49:41.861Z,0.40
2019-02-02T05:52:08.641Z,0.40
2019-02-02T05:54:35.540Z,0.40
2019-02-02T05:57:02.413Z,0.40
2019-02-02T05:59:29.222Z,0.40
2019-02-02T06:01:56.204Z,0.40
2019-02-02T06:04:23.116Z,0.40
2019-02-02T06:06:49.913Z,0.40
2019-02-02T06:09:19.482Z,0.40
2019-02-02T06:11:47.508Z,0.40
2019-02-02T06:14:17.093Z,0.40
2019-02-02T06:16:43.982Z,0.30
2019-02-02T06:19:10.885Z,0.30
2019-02-02T06:21:37.736Z,0.30
2019-02-02T06:24:04.633Z,0.30
2019-02-02T06:26:31.421Z,0.30
2019-02-02T06:28:58.200Z,0.40
2019-02-02T06:31:25.173Z,0.40
2019-02-02T06:33:52.064Z,0.40
2019-02-02T06:36:18.938Z,0.30
2019-02-02T06:38:45.739Z,0.20
2019-02-02T06:41:12.617Z,0.20
2019-02-02T06:43:39.503Z,0.10
2019-02-02T06:46:06.381Z,0.10
2019-02-02T06:48:33.185Z,0.10
2019-02-02T06:50:59.966Z,0.10
2019-02-02T06:53:26.761Z,0.10
2019-02-02T06:55:53.753Z,0.10
2019-02-02T06:58:20.541Z,0.00
2019-02-02T07:00:47.314Z,0.00
2019-02-02T07:03:14.093Z,0.00
2019-02-02T07:05:40.981Z,0.00
2019-02-02T07:08:07.850Z,0.00
2019-02-02T07:10:34.901Z,0.00
2019-02-02T07:13:01.963Z,0.00
2019-02-02T07:15:28.969Z,-0.10
2019-02-02T07:17:55.941Z,0.00
2019-02-02T07:20:22.961Z,0.00
2019-02-02T07:22:49.958Z,0.00
2019-02-02T07:25:16.945Z,0.10
2019-02-02T07:27:43.711Z,0.00
2019-02-02T07:30:27.628Z,0.00
2019-02-02T07:32:44.840Z,0.00
2019-02-02T07:35:11.875Z,0.10
2019-02-02T07:37:38.806Z,0.00
2019-02-02T07:40:07.609Z,0.00
2019-02-02T07:42:34.481Z,0.10
2019-02-02T07:45:01.418Z,0.10
2019-02-02T07:47:28.194Z,0.10
2019-02-02T07:49:55.202Z,0.20
2019-02-02T07:52:22.083Z,0.30
2019-02-02T07:54:48.973Z,0.40
2019-02-02T07:57:15.752Z,0.60
2019-02-02T07:59:42.565Z,0.60
2019-02-02T08:02:09.554Z,0.80
2019-02-02T08:04:36.686Z,0.80
2019-02-02T08:07:03.657Z,1.00
2019-02-02T08:09:30.545Z,1.30
2019-02-02T08:11:57.379Z,1.50
2019-02-02T08:14:24.265Z,1.60
2019-02-02T08:16:52.688Z,1.60
2019-02-02T08:19:19.887Z,1.50
2019-02-02T08:21:46.797Z,1.40
2019-02-02T08:24:13.725Z,1.40
2019-02-02T08:26:40.718Z,1.40
2019-02-02T08:29:07.718Z,1.30
2019-02-02T08:31:34.605Z,1.30
2019-02-02T08:34:01.518Z,1.30
2019-02-02T08:36:28.493Z,1.70
2019-02-02T08:38:55.394Z,2.10
2019-02-02T08:41:22.405Z,2.70
2019-02-02T08:43:49.215Z,3.70
2019-02-02T08:46:16.025Z,5.10
2019-02-02T08:48:42.904Z,6.00
2019-02-02T08:51:09.921Z,6.40
2019-02-02T08:53:36.737Z,6.20
2019-02-02T08:56:03.886Z,6.00
2019-02-02T08:58:30.838Z,5.60
2019-02-02T09:01:04.270Z,5.30
2019-02-02T09:03:26.514Z,5.00
2019-02-02T09:05:53.436Z,4.90
2019-02-02T09:08:20.307Z,4.70
2019-02-02T09:10:47.176Z,4.70
2019-02-02T09:13:13.953Z,4.80
2019-02-02T09:15:40.930Z,4.80
2019-02-02T09:18:07.925Z,4.70
2019-02-02T09:20:34.889Z,4.70
2019-02-02T09:23:06.155Z,4.80
2019-02-02T09:25:30.544Z,5.20
2019-02-02T09:27:57.394Z,5.80
2019-02-02T09:30:26.625Z,6.40
2019-02-02T09:32:53.620Z,6.70
2019-02-02T09:35:20.505Z,7.40
2019-02-02T09:37:47.501Z,8.30
2019-02-02T09:40:15.741Z,9.10
2019-02-02T09:42:42.641Z,10.30
2019-02-02T09:45:10.759Z,11.90
2019-02-02T09:47:37.654Z,12.90
2019-02-02T09:50:06.393Z,13.50
2019-02-02T09:52:33.385Z,13.90
2019-02-02T09:55:00.345Z,14.50
2019-02-02T09:57:27.766Z,15.30
2019-02-02T09:59:55.121Z,15.80
2019-02-02T10:02:21.917Z,16.40
2019-02-02T10:04:48.785Z,16.60
2019-02-02T10:07:15.567Z,16.60
2019-02-02T10:09:42.438Z,17.10
2019-02-02T10:12:09.272Z,18.00
2019-02-02T10:14:36.033Z,18.50
2019-02-02T10:17:03.165Z,19.20
2019-02-02T10:19:29.961Z,19.70
2019-02-02T10:21:56.751Z,20.50
2019-02-02T10:24:23.620Z,20.70
2019-02-02T10:26:50.494Z,20.40
2019-02-02T10:29:17.278Z,20.30
2019-02-02T10:31:44.188Z,20.30
2019-02-02T10:34:12.477Z,19.80
2019-02-02T10:36:39.757Z,18.30
2019-02-02T10:39:07.471Z,16.90
2019-02-02T10:41:34.262Z,15.80
2019-02-02T10:44:01.145Z,14.70
2019-02-02T10:46:28.117Z,14.00
2019-02-02T10:48:55.004Z,13.40
2019-02-02T10:51:22.014Z,12.80
2019-02-02T10:53:48.904Z,12.40
2019-02-02T10:56:15.881Z,12.00
2019-02-02T10:58:42.806Z,11.80
2019-02-02T11:01:09.779Z,11.60
2019-02-02T11:03:36.553Z,11.00
2019-02-02T11:06:03.874Z,10.80
2019-02-02T11:08:31.105Z,10.50
2019-02-02T11:10:58.188Z,10.20
2019-02-02T11:13:25.010Z,9.90
2019-02-02T11:15:51.975Z,10.00
2019-02-02T11:18:18.940Z,9.90
2019-02-02T11:20:46.017Z,9.80
2019-02-02T11:23:12.964Z,9.60
2019-02-02T11:25:40.252Z,9.40
2019-02-02T11:28:07.598Z,9.40
2019-02-02T11:30:34.776Z,9.50
2019-02-02T11:33:01.830Z,9.60
2019-02-02T11:35:28.710Z,9.70
2019-02-02T11:37:55.696Z,10.30
2019-02-02T11:40:27.687Z,10.80
2019-02-02T11:42:54.987Z,11.60
2019-02-02T11:45:21.970Z,11.90
2019-02-02T11:47:48.733Z,12.50
2019-02-02T11:50:15.862Z,13.20
2019-02-02T11:52:42.885Z,13.60
2019-02-02T11:55:10.578Z,13.40
2019-02-02T11:57:37.561Z,13.10
2019-02-02T12:00:08.984Z,13.00
2019-02-02T12:02:35.981Z,13.50
2019-02-02T12:05:03.681Z,15.20
2019-02-02T12:07:30.551Z,16.10
2019-02-02T12:09:57.322Z,16.00
2019-02-02T12:12:24.200Z,15.80
2019-02-02T12:14:50.992Z,15.40
2019-02-02T12:17:17.867Z,15.00
2019-02-02T12:19:44.652Z,15.00
2019-02-02T12:22:11.414Z,15.10
2019-02-02T12:24:38.191Z,15.60
2019-02-02T12:27:05.061Z,17.00
2019-02-02T12:29:31.837Z,18.90
2019-02-02T12:31:58.720Z,21.00
2019-02-02T12:34:25.504Z,22.70
2019-02-02T12:36:52.358Z,24.00
2019-02-02T12:39:19.356Z,25.20
2019-02-02T12:41:46.147Z,24.30
2019-02-02T12:44:13.019Z,23.20
2019-02-02T12:46:39.907Z,21.90
2019-02-02T12:49:06.897Z,21.70
2019-02-02T12:51:33.690Z,21.80
2019-02-02T12:54:00.718Z,20.80
2019-02-02T12:56:27.653Z,19.30
2019-02-02T12:58:54.746Z,17.90
2019-02-02T13:01:21.754Z,17.00
2019-02-02T13:03:48.621Z,15.90
2019-02-02T13:06:15.604Z,15.00
2019-02-02T13:08:42.491Z,14.50
2019-02-02T13:11:09.485Z,13.70
2019-02-02T13:13:36.272Z,13.00
2019-02-02T13:16:03.158Z,12.30
2019-02-02T13:18:30.011Z,12.00
2019-02-02T13:20:56.896Z,11.60
2019-02-02T13:23:23.965Z,11.40
2019-02-02T13:25:50.848Z,11.30
2019-02-02T13:28:17.717Z,11.00
2019-02-02T13:30:44.791Z,10.50
2019-02-02T13:33:11.566Z,10.10
2019-02-02T13:35:40.836Z,9.80
2019-02-02T13:38:07.896Z,9.70
2019-02-02T13:40:34.827Z,9.50
2019-02-02T13:43:01.704Z,9.30
2019-02-02T13:45:28.480Z,9.20
2019-02-02T13:47:55.444Z,9.10
2019-02-02T13:50:22.453Z,9.00
2019-02-02T13:52:49.790Z,9.00
2019-02-02T13:55:16.765Z,8.70
2019-02-02T13:57:43.845Z,8.60
2019-02-02T14:00:13.833Z,8.60
2019-02-02T14:02:40.819Z,8.50
2019-02-02T14:05:10.098Z,8.40
2019-02-02T14:07:36.977Z,8.30
2019-02-02T14:10:04.922Z,8.30
2019-02-02T14:12:31.905Z,8.10
2019-02-02T14:14:58.822Z,7.90
2019-02-02T14:17:25.676Z,7.70
2019-02-02T14:19:52.442Z,7.70
2019-02-02T14:22:19.214Z,7.70
2019-02-02T14:24:46.176Z,7.60
2019-02-02T14:27:13.054Z,7.40
2019-02-02T14:29:39.853Z,7.30
2019-02-02T14:32:06.796Z,7.20
2019-02-02T14:34:40.107Z,7.10
2019-02-02T14:37:02.462Z,7.00
2019-02-02T14:39:29.247Z,7.00
2019-02-02T14:41:56.322Z,6.90
2019-02-02T14:44:23.091Z,6.90
2019-02-02T14:46:49.850Z,6.80
2019-02-02T14:49:16.657Z,6.70
2019-02-02T14:51:43.631Z,6.70
2019-02-02T14:54:10.638Z,6.70
2019-02-02T14:56:37.494Z,6.70
2019-02-02T14:59:04.426Z,6.70
2019-02-02T15:01:31.253Z,6.70
2019-02-02T15:03:58.216Z,6.60
2019-02-02T15:06:25.353Z,6.60
2019-02-02T15:08:52.249Z,6.50
2019-02-02T15:11:19.134Z,6.50
2019-02-02T15:13:45.920Z,6.50
2019-02-02T15:16:12.885Z,6.50
2019-02-02T15:18:39.678Z,6.40
2019-02-02T15:21:06.538Z,6.40
2019-02-02T15:23:33.439Z,6.40
2019-02-02T15:26:00.338Z,6.40
2019-02-02T15:28:27.233Z,6.30
2019-02-02T15:30:54.127Z,6.30
2019-02-02T15:33:20.902Z,6.20
2019-02-02T15:35:47.878Z,6.20
2019-02-02T15:38:14.648Z,6.20
2019-02-02T15:40:41.421Z,6.10
2019-02-02T15:43:08.293Z,6.10
2019-02-02T15:45:35.182Z,6.00
2019-02-02T15:48:02.134Z,6.00
2019-02-02T15:50:29.139Z,6.00
2019-02-02T15:52:56.018Z,5.90
2019-02-02T15:55:22.913Z,5.80
2019-02-02T15:57:49.877Z,5.80
2019-02-02T16:00:22.194Z,5.80
2019-02-02T16:02:49.061Z,5.80
2019-02-02T16:05:16.097Z,5.70
2019-02-02T16:07:43.090Z,5.70
2019-02-02T16:10:15.370Z,5.60
2019-02-02T16:12:42.338Z,5.60
2019-02-02T16:15:09.734Z,5.50
2019-02-02T16:17:39.521Z,5.50
2019-02-02T16:20:10.141Z,5.40
2019-02-02T16:22:37.134Z,5.40
2019-02-02T16:25:05.474Z,5.30
2019-02-02T16:27:32.337Z,5.30
2019-02-02T16:29:59.230Z,5.20
2019-02-02T16:32:26.090Z,5.10
2019-02-02T16:34:53.021Z,5.10
2019-02-02T16:37:19.861Z,5.10
2019-02-02T16:39:46.754Z,5.00
2019-02-02T16:42:13.529Z,5.00
2019-02-02T16:44:40.421Z,4.90
2019-02-02T16:47:07.298Z,4.80
2019-02-02T16:49:34.091Z,4.70
2019-02-02T16:52:00.978Z,4.60
2019-02-02T16:54:27.774Z,4.50
2019-02-02T16:56:54.656Z,4.40
2019-02-02T16:59:21.417Z,4.40
2019-02-02T17:01:48.197Z,4.30
2019-02-02T17:04:16.265Z,4.30
2019-02-02T17:06:43.257Z,4.20
2019-02-02T17:09:10.352Z,4.20
2019-02-02T17:11:37.233Z,4.20
2019-02-02T17:14:04.648Z,4.10
2019-02-02T17:16:31.525Z,4.10
2019-02-02T17:18:58.413Z,4.00
2019-02-02T17:21:25.230Z,3.90
2019-02-02T17:23:52.029Z,3.80
2019-02-02T17:26:18.928Z,3.70
2019-02-02T17:28:45.805Z,3.70
2019-02-02T17:31:12.803Z,3.50
2019-02-02T17:33:39.689Z,3.40
2019-02-02T17:36:06.678Z,3.30
2019-02-02T17:38:33.442Z,3.30
2019-02-02T17:41:00.221Z,3.20
2019-02-02T17:43:26.990Z,3.10
2019-02-02T17:45:53.966Z,3.00
2019-02-02T17:48:21.036Z,3.00
2019-02-02T17:50:47.829Z,2.90
2019-02-02T17:53:14.726Z,2.80
2019-02-02T17:55:41.695Z,2.70
2019-02-02T17:58:08.675Z,2.60
2019-02-02T18:00:43.317Z,2.50
2019-02-02T18:03:10.290Z,2.40
2019-02-02T18:05:37.270Z,2.30
2019-02-02T18:08:04.547Z,2.10
2019-02-02T18:10:31.301Z,2.10
2019-02-02T18:12:58.194Z,2.00
2019-02-02T18:15:24.962Z,2.00
2019-02-02T18:17:51.841Z,2.00
2019-02-02T18:20:18.825Z,2.10
2019-02-02T18:22:45.809Z,2.20
2019-02-02T18:25:13.052Z,2.30
2019-02-02T18:27:39.932Z,2.30
2019-02-02T18:30:10.557Z,2.40
2019-02-02T18:32:37.533Z,2.60
2019-02-02T18:35:05.428Z,2.60
2019-02-02T18:37:32.205Z,2.70
2019-02-02T18:39:59.075Z,2.80
2019-02-02T18:42:25.846Z,2.80
2019-02-02T18:44:52.609Z,2.90
2019-02-02T18:47:19.413Z,2.90
2019-02-02T18:49:46.181Z,2.80
2019-02-02T18:52:12.971Z,2.90
2019-02-02T18:54:39.847Z,2.80
2019-02-02T18:57:06.725Z,2.80
2019-02-02T18:59:33.496Z,2.70
2019-02-02T19:02:00.281Z,2.70
2019-02-02T19:04:27.152Z,2.70
2019-02-02T19:06:54.049Z,2.70
2019-02-02T19:09:21.038Z,2.70
2019-02-02T19:11:47.878Z,2.70
2019-02-02T19:14:14.758Z,2.70
2019-02-02T19:16:41.530Z,2.70
2019-02-02T19:19:08.422Z,2.80
2019-02-02T19:21:35.181Z,2.80
2019-02-02T19:24:01.989Z,2.90
2019-02-02T19:26:28.889Z,2.90
2019-02-02T19:28:55.785Z,3.00
2019-02-02T19:31:22.645Z,3.00
2019-02-02T19:33:49.644Z,3.10
2019-02-02T19:36:16.630Z,3.20
2019-02-02T19:38:43.428Z,3.10
2019-02-02T19:41:10.233Z,3.10
2019-02-02T19:43:37.126Z,3.10
2019-02-02T19:46:04.117Z,3.10
2019-02-02T19:48:31.096Z,3.10
2019-02-02T19:50:57.881Z,3.20
2019-02-02T19:53:24.791Z,3.20
2019-02-02T19:55:51.565Z,3.20
2019-02-02T19:58:18.463Z,3.20
2019-02-02T20:00:46.218Z,3.20
2019-02-02T20:03:13.029Z,3.30
2019-02-02T20:05:40.014Z,3.30
2019-02-02T20:08:06.869Z,3.30
2019-02-02T20:10:33.880Z,3.40
2019-02-02T20:13:00.854Z,3.40
2019-02-02T20:15:27.869Z,3.40
2019-02-02T20:17:55.498Z,3.40
2019-02-02T20:20:23.897Z,3.40
2019-02-02T20:22:50.781Z,3.30
2019-02-02T20:25:17.802Z,3.30
2019-02-02T20:27:44.834Z,3.30
2019-02-02T20:30:14.365Z,3.20
2019-02-02T20:32:41.245Z,3.20
2019-02-02T20:35:08.845Z,3.10
2019-02-02T20:37:35.749Z,3.10
2019-02-02T20:40:03.544Z,3.10
2019-02-02T20:42:30.437Z,3.00
2019-02-02T20:44:57.345Z,3.00
2019-02-02T20:47:24.130Z,3.00
2019-02-02T20:49:51.222Z,3.00
2019-02-02T20:52:18.197Z,3.00
2019-02-02T20:54:45.114Z,3.00
2019-02-02T20:57:12.081Z,3.10
2019-02-02T20:59:39.069Z,3.10
2019-02-02T21:02:06.056Z,3.10
2019-02-02T21:04:33.141Z,3.10
2019-02-02T21:06:59.917Z,3.10
2019-02-02T21:09:26.766Z,3.20
2019-02-02T21:11:57.018Z,3.20
2019-02-02T21:14:22.401Z,3.20
2019-02-02T21:16:49.185Z,3.20
2019-02-02T21:19:15.970Z,3.20
2019-02-02T21:21:43.048Z,3.20
2019-02-02T21:24:10.042Z,3.20
2019-02-02T21:26:36.936Z,3.20
2019-02-02T21:29:03.949Z,3.20
2019-02-02T21:31:30.821Z,3.20
2019-02-02T21:33:59.031Z,3.20
2019-02-02T21:36:26.118Z,3.20
2019-02-02T21:38:53.018Z,3.20
2019-02-02T21:41:19.997Z,3.20
2019-02-02T21:43:46.982Z,3.20
2019-02-02T21:46:13.774Z,3.20
2019-02-02T21:48:40.555Z,3.20
2019-02-02T21:51:07.561Z,3.20
2019-02-02T21:53:34.853Z,3.30
2019-02-02T21:56:01.652Z,3.30
2019-02-02T21:58:28.528Z,3.30
2019-02-02T22:00:55.406Z,3.40
2019-02-02T22:03:22.297Z,3.30
2019-02-02T22:05:49.087Z,3.30
2019-02-02T22:08:16.065Z,3.20
2019-02-02T22:10:43.058Z,3.20
2019-02-02T22:13:10.021Z,3.20
2019-02-02T22:15:36.914Z,3.20
2019-02-02T22:18:04.413Z,3.20
2019-02-02T22:20:31.375Z,3.20
2019-02-02T22:23:01.026Z,3.20
2019-02-02T22:25:29.314Z,3.20
2019-02-02T22:27:56.293Z,3.20
2019-02-02T22:30:27.568Z,3.20
2019-02-02T22:32:57.569Z,3.20
2019-02-02T22:35:24.661Z,3.20
2019-02-02T22:37:51.753Z,3.20
2019-02-02T22:40:20.595Z,3.20
2019-02-02T22:42:47.677Z,3.20
2019-02-02T22:45:16.133Z,3.30
2019-02-02T22:47:43.111Z,3.30
2019-02-02T22:50:11.958Z,3.30
2019-02-02T22:52:38.825Z,3.30
2019-02-02T22:55:07.008Z,3.30
2019-02-02T22:57:33.837Z,3.30
2019-02-02T23:00:00.634Z,3.40
2019-02-02T23:02:27.613Z,3.40
2019-02-02T23:05:38.258Z,3.30
2019-02-02T23:08:32.387Z,3.30
2019-02-02T23:11:39.422Z,3.20
2019-02-02T23:14:45.264Z,3.10
2019-02-02T23:17:12.244Z,3.10
2019-02-02T23:19:39.128Z,3.00
2019-02-02T23:22:06.124Z,3.00
2019-02-02T23:24:33.296Z,3.00
2019-02-02T23:27:00.168Z,3.00
2019-02-02T23:29:27.133Z,3.00
2019-02-02T23:31:54.021Z,3.00
2019-02-02T23:34:20.792Z,3.00
2019-02-02T23:36:52.046Z,3.00
2019-02-02T23:39:16.590Z,3.10
2019-02-02T23:41:43.369Z,3.10
2019-02-02T23:44:10.266Z,3.10
2019-02-02T23:46:37.141Z,3.00
2019-02-02T23:49:04.532Z,3.10
2019-02-02T23:51:31.333Z,3.10
2019-02-02T23:53:58.216Z,3.10
2019-02-02T23:56:25.594Z,3.20
2019-02-02T23:58:52.374Z,3.20
